Etusivu
METAR-TAF:

METAR-TAF

Lentoasemat :

Lanzhou, Kiina

Leveyspiiri: 36-02N, Pituuspiiri: 103-52E, korkeus merenpinnasta: 1518 m

Tämänhetkinen sää

Tämä raportti tehtiin 1 tunti ja 9 minuuttia sitten, kello 11.00 UTC
Tuuli 6 kn pohjoisen/luoteesta
Lämpötila 20°C
Kosteus 56%
Ilmanpaine 1015 hPa
Näkyvyys 10 km tai enemmän
Muutamia pilviä 3300 ft:n korkeudessa, Cumulonimbus.

METAR: ZLLL 221100Z 34003MPS 9999 FEW033CB 20/11 Q1015 NOSIG

Aika: 20:09 (12:09 UTC)

Sääennuste

Tämä raportti tehtiin 3 tuntia ja 6 minuuttia sitten, kello 09.03 UTC
Ennuste voimassa 22. päivästä klo 12 UTC - 23. päivään klo 12 UTC
Tuuli 6 kn pohjoisesta
Näkyvyys: 6000 m
Ajoittain
23. päivästä klo 05 UTC - 23. päivään klo 09 UTC
Tuuli 17 kn pohjoisesta
Hajanaisia pilviä 2300 ft:n korkeudessa
Muutamia pilviä 3300 ft:n korkeudessa, Cumulonimbus.

TAF: ZLLL 220903Z 2212/2312 35003MPS 6000 NSC TX26/2307Z TN10/2222Z TEMPO 2305/2309 35009MPS SCT023 FEW033CB

Säähavainnot ja -ennusteet yli 4000 lentoasemalta (METAR- ja TAF-raportit).

Käytössä olevat sääasemat on merkitty karttaan keltaisilla ja punaisilla pisteillä.

Aseta hiiri pisteen päälle nähdäksesi sääaseman nimen.

Klikkaa sitten nähdäksesi säähavainnot ja -ennusteet.

Kartan vaihtaminen: klikkaa mustalla rastilla varustettuja vihreitä pisteitä, niin voit zoomata sisään; viivalla varustettua vihreää pistettä, niin voit zoomata ulos tai vihreitä nuolia, niin pääset viereisille kartoille.


METAR-TAF: